Accueil
METAR-TAF:

METAR-TAF

Aéroports :

Base aérienne

Niederstetten, Allemagne

latitude: 49-24N, longitude: 009-58E, altitude: 468 m

Observation

Le bulletin a été fait il y a 33 minutes, à 06:20 UTC
Vent 5 kt de est
Température 22°C
Humidité 73%
Pression 1017 hPa
Visibilité 10 km ou plus
Quelques nuages à une hauteur de 8000 ft

METAR: ETHN 110620Z 10005KT 9999 FEW080 22/17 Q1017 BLU+BLU+

Heure: 08:53 (06:53 UTC)

Prévision

Le bulletin a été fait il y a 2 heures et 41 minutes, à 04:12 UTC
Prévision valable du 11 à 05 UTC au 11 à 14 UTC
Vent 7 kt de est
Visibilité 10 km ou plus
Quelques nuages à une hauteur de 5000 ft
Probabilité 30%
du 11 à 12 UTC au 11 à 14 UTC
Vent 15 kt de est/sud-est avec des rafales jusqu'à 30 kt
Visibilité: 1500 m
Nuages fragmentés à une hauteur de 3000 ft, Cumulonimbus.
orage, pluie

TAF: ETHN 110412Z 1105/1114 09007KT 9999 NSW FEW050 PROB30 1112/1114 12015G30KT 1500 TSRA BKN030CB

Observations et prévisions météorologiques de plus de 4000 aéroports (messages METAR et TAF).

Les stations disponibles sont représentées par des disques jaunes et rouges sur la carte.

Passer la souris dessus pour voir le nom de la station.

Cliquer dessus pour voir les observations et prévisions météorologiques.

Pour changer de carte: cliquez sur les boutons verts avec une croix noire pour zoomer, sur le bouton vert avec un tiret pour effectuer un zoom arrière, ou sur les flèches vertes pour les cartes adjacentes.


METAR-TAF: